createdAt,value
2023-04-14T00:01:04.068Z,8.83
2023-04-14T00:03:33.705Z,9.17
2023-04-14T00:06:02.096Z,8.67
2023-04-14T00:08:30.661Z,8.97
2023-04-14T00:10:59.327Z,9.00
2023-04-14T00:13:27.968Z,8.67
2023-04-14T00:15:57.020Z,9.30
2023-04-14T00:18:25.671Z,8.90
2023-04-14T00:20:57.777Z,9.37
2023-04-14T00:23:26.502Z,8.73
2023-04-14T00:25:54.617Z,9.20
2023-04-14T00:28:22.797Z,8.70
2023-04-14T00:30:51.040Z,9.67
2023-04-14T00:33:19.196Z,9.53
2023-04-14T00:35:47.629Z,9.13
2023-04-14T00:38:17.327Z,9.27
2023-04-14T00:40:45.655Z,9.63
2023-04-14T00:43:13.856Z,9.23
2023-04-14T00:45:46.480Z,9.80
2023-04-14T00:48:15.809Z,10.13
2023-04-14T00:50:44.475Z,8.80
2023-04-14T00:53:14.137Z,9.90
2023-04-14T00:55:44.362Z,9.90
2023-04-14T00:58:13.006Z,10.30
2023-04-14T01:00:41.167Z,9.67
2023-04-14T01:03:09.756Z,9.80
2023-04-14T01:05:37.996Z,10.17
2023-04-14T01:08:06.603Z,9.83
2023-04-14T01:10:42.566Z,10.07
2023-04-14T01:13:23.558Z,9.30
2023-04-14T01:15:55.668Z,9.43
2023-04-14T01:18:30.545Z,9.97
2023-04-14T01:21:04.516Z,9.63
2023-04-14T01:23:39.078Z,9.57
2023-04-14T01:26:30.389Z,9.93
2023-04-14T01:29:36.257Z,9.87
2023-04-14T01:32:10.753Z,9.90
2023-04-14T01:34:47.385Z,9.97
2023-04-14T01:37:18.277Z,8.87
2023-04-14T01:39:51.474Z,10.17
2023-04-14T01:42:24.604Z,8.93
2023-04-14T01:44:58.546Z,9.07
2023-04-14T01:47:30.984Z,10.40
2023-04-14T01:50:02.590Z,9.97
2023-04-14T01:52:32.935Z,9.70
2023-04-14T01:55:05.871Z,10.03
2023-04-14T01:57:37.395Z,10.43
2023-04-14T02:00:08.768Z,9.67
2023-04-14T02:02:41.595Z,10.67
2023-04-14T02:05:11.799Z,9.93
2023-04-14T02:07:41.724Z,10.13
2023-04-14T02:10:11.763Z,10.57
2023-04-14T02:12:43.351Z,9.63
2023-04-14T02:15:16.184Z,10.80
2023-04-14T02:17:49.961Z,9.93
2023-04-14T02:20:18.696Z,9.90
2023-04-14T02:22:47.159Z,10.37
2023-04-14T02:25:15.607Z,9.87
2023-04-14T02:27:50.303Z,9.63
2023-04-14T02:30:21.816Z,10.37
2023-04-14T02:32:58.224Z,10.17
2023-04-14T02:35:30.071Z,10.33
2023-04-14T02:38:08.427Z,9.80
2023-04-14T02:40:40.056Z,9.73
2023-04-14T02:43:13.943Z,10.20
2023-04-14T02:45:44.055Z,9.80
2023-04-14T02:48:17.066Z,9.87
2023-04-14T02:50:48.750Z,9.63
2023-04-14T02:53:21.970Z,9.57
2023-04-14T02:55:52.178Z,10.17
2023-04-14T02:58:21.563Z,9.67
2023-04-14T03:00:52.126Z,10.33
2023-04-14T03:03:22.194Z,10.17
2023-04-14T03:05:50.729Z,10.53
2023-04-14T03:08:20.608Z,9.67
2023-04-14T03:10:52.971Z,10.60
2023-04-14T03:13:23.640Z,10.33
2023-04-14T03:15:54.157Z,10.17
2023-04-14T03:18:24.374Z,10.87
2023-04-14T03:20:55.928Z,10.73
2023-04-14T03:23:27.014Z,10.00
2023-04-14T03:25:58.308Z,11.40
2023-04-14T03:28:29.488Z,10.77
2023-04-14T03:31:01.410Z,11.00
2023-04-14T03:33:33.928Z,10.80
2023-04-14T03:36:03.120Z,10.93
2023-04-14T03:38:34.567Z,11.53
2023-04-14T03:41:05.625Z,11.57
2023-04-14T03:43:36.050Z,12.20
2023-04-14T03:46:06.378Z,11.90
2023-04-14T03:48:42.989Z,12.17
2023-04-14T03:51:14.415Z,13.43
2023-04-14T03:53:44.540Z,12.20
2023-04-14T03:56:16.824Z,13.67
2023-04-14T03:58:49.557Z,13.27
2023-04-14T04:01:19.552Z,12.40
2023-04-14T04:03:50.031Z,11.80
2023-04-14T04:06:19.057Z,13.30
2023-04-14T04:08:49.190Z,13.67
2023-04-14T04:11:20.960Z,14.10
2023-04-14T04:13:50.412Z,13.70
2023-04-14T04:16:20.571Z,13.33
2023-04-14T04:18:51.608Z,13.77
2023-04-14T04:21:21.543Z,13.03
2023-04-14T04:23:54.688Z,14.33
2023-04-14T04:26:23.892Z,14.60
2023-04-14T04:28:53.720Z,13.50
2023-04-14T04:31:23.985Z,14.40
2023-04-14T04:33:54.742Z,13.83
2023-04-14T04:36:23.471Z,14.97
2023-04-14T04:38:51.987Z,14.67
2023-04-14T04:41:24.032Z,13.13
2023-04-14T04:43:52.738Z,14.00
2023-04-14T04:46:44.340Z,14.97
2023-04-14T04:49:15.781Z,14.27
2023-04-14T04:51:44.807Z,13.97
2023-04-14T04:54:13.481Z,14.47
2023-04-14T04:56:41.836Z,14.50
2023-04-14T04:59:11.359Z,14.27
2023-04-14T05:01:39.720Z,14.23
2023-04-14T05:04:08.433Z,14.57
2023-04-14T05:06:38.699Z,13.50
2023-04-14T05:09:07.582Z,14.10
2023-04-14T05:11:37.072Z,14.47
2023-04-14T05:14:05.690Z,14.27
2023-04-14T05:16:33.930Z,14.87
2023-04-14T05:19:03.275Z,15.07
2023-04-14T05:21:31.802Z,15.17
2023-04-14T05:24:01.706Z,15.87
2023-04-14T05:26:52.003Z,14.73
2023-04-14T05:29:21.003Z,14.97
2023-04-14T05:31:49.909Z,14.87
2023-04-14T05:34:18.520Z,15.43
2023-04-14T05:36:48.627Z,14.80
2023-04-14T05:39:18.450Z,15.87
2023-04-14T05:41:47.175Z,15.70
2023-04-14T05:44:16.870Z,15.70
2023-04-14T05:46:47.064Z,15.87
2023-04-14T05:49:15.264Z,16.00
2023-04-14T05:51:45.587Z,16.53
2023-04-14T05:54:13.832Z,17.03
2023-04-14T05:56:43.453Z,17.00
2023-04-14T05:59:11.811Z,16.23
2023-04-14T06:01:40.394Z,16.20
2023-04-14T06:04:09.336Z,17.57
2023-04-14T06:06:38.176Z,17.37
2023-04-14T06:09:06.369Z,16.73
2023-04-14T06:11:34.559Z,17.00
2023-04-14T06:14:05.540Z,18.03
2023-04-14T06:16:33.859Z,17.43
2023-04-14T06:19:04.686Z,16.67
2023-04-14T06:21:32.903Z,18.43
2023-04-14T06:24:01.626Z,18.07
2023-04-14T06:26:32.547Z,18.57
2023-04-14T06:29:07.701Z,18.53
2023-04-14T06:31:36.255Z,18.70
2023-04-14T06:34:04.387Z,19.17
2023-04-14T06:36:33.114Z,17.23
2023-04-14T06:39:02.532Z,16.83
2023-04-14T06:41:31.288Z,18.80
2023-04-14T06:43:59.897Z,18.07
2023-04-14T06:46:30.305Z,14.93
2023-04-14T06:48:58.534Z,14.57
2023-04-14T06:51:27.252Z,15.60
2023-04-14T06:53:55.676Z,14.70
2023-04-14T06:56:23.991Z,15.07
2023-04-14T06:58:52.420Z,14.10
2023-04-14T07:01:20.944Z,13.97
2023-04-14T07:03:50.599Z,15.07
2023-04-14T07:06:20.203Z,13.43
2023-04-14T07:08:48.388Z,12.67
2023-04-14T07:11:16.409Z,12.90
2023-04-14T07:13:44.923Z,13.33
2023-04-14T07:16:13.412Z,12.27
2023-04-14T07:18:41.732Z,12.73
2023-04-14T07:21:12.127Z,12.00
2023-04-14T07:23:40.495Z,12.90
2023-04-14T07:26:08.584Z,11.67
2023-04-14T07:28:37.376Z,12.47
2023-04-14T07:31:10.076Z,10.13
2023-04-14T07:33:38.578Z,9.93
2023-04-14T07:36:08.113Z,11.10
2023-04-14T07:38:37.894Z,10.87
2023-04-14T07:41:07.951Z,10.47
2023-04-14T07:43:36.445Z,11.00
2023-04-14T07:46:05.782Z,10.50
2023-04-14T07:48:37.213Z,10.47
2023-04-14T07:51:07.002Z,9.70
2023-04-14T07:53:43.190Z,10.20
2023-04-14T07:56:13.216Z,10.47
2023-04-14T07:58:41.348Z,9.93
2023-04-14T08:01:09.842Z,9.90
2023-04-14T08:03:38.705Z,10.00
2023-04-14T08:06:11.011Z,10.53
2023-04-14T08:08:40.992Z,11.27
2023-04-14T08:11:09.129Z,13.93
2023-04-14T08:13:38.749Z,15.33
2023-04-14T08:16:07.151Z,13.83
2023-04-14T08:18:35.679Z,13.47
2023-04-14T08:21:03.879Z,13.23
2023-04-14T08:23:32.287Z,13.70
2023-04-14T08:26:00.506Z,14.00
2023-04-14T08:28:29.609Z,14.63
2023-04-14T08:31:00.058Z,13.37
2023-04-14T08:33:31.373Z,12.40
2023-04-14T08:36:00.589Z,11.93
2023-04-14T08:38:29.594Z,10.57
2023-04-14T08:41:00.476Z,12.03
2023-04-14T08:43:28.884Z,9.27
2023-04-14T08:46:03.427Z,8.00
2023-04-14T08:48:33.039Z,6.23
2023-04-14T08:51:08.853Z,5.37
2023-04-14T08:53:45.366Z,4.43
2023-04-14T08:56:17.880Z,5.77
2023-04-14T08:58:47.350Z,5.13
2023-04-14T09:01:17.485Z,5.47
2023-04-14T09:03:46.429Z,4.27
2023-04-14T09:06:15.876Z,5.87
2023-04-14T09:08:45.030Z,6.03
2023-04-14T09:11:14.633Z,6.17
2023-04-14T09:13:45.521Z,5.93
2023-04-14T09:16:15.507Z,6.20
2023-04-14T09:18:47.358Z,5.60
2023-04-14T09:21:29.613Z,6.27
2023-04-14T09:24:07.969Z,4.20
2023-04-14T09:26:37.791Z,4.20
2023-04-14T09:29:06.323Z,4.33
2023-04-14T09:31:34.943Z,5.30
2023-04-14T09:34:05.399Z,4.20
2023-04-14T09:36:33.671Z,5.30
2023-04-14T09:39:02.620Z,5.23
2023-04-14T09:41:31.776Z,5.13
2023-04-14T09:44:10.824Z,6.20
2023-04-14T09:46:39.002Z,4.63
2023-04-14T09:49:09.054Z,4.97
2023-04-14T09:51:51.846Z,4.20
2023-04-14T09:54:25.840Z,5.20
2023-04-14T09:56:57.747Z,5.27
2023-04-14T09:59:34.426Z,5.10
2023-04-14T10:02:06.584Z,5.57
2023-04-14T10:04:36.886Z,5.50
2023-04-14T10:07:08.144Z,5.80
2023-04-14T10:09:38.638Z,6.90
2023-04-14T10:12:12.764Z,5.93
2023-04-14T10:14:41.463Z,6.70
2023-04-14T10:17:10.101Z,7.83
2023-04-14T10:19:39.919Z,8.07
2023-04-14T10:22:08.106Z,7.63
2023-04-14T10:24:37.084Z,8.23
2023-04-14T10:27:06.323Z,8.40
2023-04-14T10:29:36.846Z,8.57
2023-04-14T10:32:08.549Z,8.10
2023-04-14T10:34:41.223Z,7.70
2023-04-14T10:37:15.879Z,8.30
2023-04-14T10:39:44.221Z,9.00
2023-04-14T10:42:12.421Z,8.40
2023-04-14T10:44:40.884Z,7.70
2023-04-14T10:47:09.419Z,7.47
2023-04-14T10:49:39.593Z,7.70
2023-04-14T10:52:28.658Z,9.20
2023-04-14T10:55:01.278Z,9.43
2023-04-14T10:57:30.936Z,8.80
2023-04-14T11:00:00.172Z,9.50
2023-04-14T11:02:32.842Z,10.07
2023-04-14T11:05:04.205Z,9.93
2023-04-14T11:07:33.485Z,10.00
2023-04-14T11:10:27.364Z,10.37
2023-04-14T11:13:02.136Z,9.43
2023-04-14T11:15:50.911Z,9.07
2023-04-14T11:18:22.924Z,10.03
2023-04-14T11:20:54.025Z,10.00
2023-04-14T11:23:28.455Z,9.53
2023-04-14T11:25:58.813Z,8.87
2023-04-14T11:28:30.902Z,9.73
2023-04-14T11:31:00.152Z,9.27
2023-04-14T11:33:30.606Z,8.87
2023-04-14T11:35:59.214Z,8.23
2023-04-14T11:38:28.124Z,8.83
2023-04-14T11:40:57.868Z,8.47
2023-04-14T11:43:26.555Z,8.30
2023-04-14T11:45:54.875Z,7.77
2023-04-14T11:48:23.046Z,8.47
2023-04-14T11:50:52.219Z,8.30
2023-04-14T11:53:21.374Z,7.77
2023-04-14T11:55:51.074Z,6.73
2023-04-14T11:58:25.455Z,7.93
2023-04-14T12:00:56.448Z,6.90
2023-04-14T12:06:18.215Z,7.53
2023-04-14T12:08:50.693Z,7.43
2023-04-14T12:11:18.987Z,6.70
2023-04-14T12:13:49.118Z,6.90
2023-04-14T12:16:18.406Z,6.93
2023-04-14T12:18:46.863Z,7.07
2023-04-14T12:21:20.146Z,6.70
2023-04-14T12:23:49.983Z,6.50
2023-04-14T12:26:18.360Z,6.23
2023-04-14T12:28:47.314Z,6.00
2023-04-14T12:31:27.835Z,6.50
2023-04-14T12:34:02.159Z,6.53
2023-04-14T12:36:47.971Z,6.23
2023-04-14T12:39:16.971Z,5.80
2023-04-14T12:41:45.714Z,6.10
2023-04-14T12:44:18.584Z,6.47
2023-04-14T12:46:56.686Z,6.47
2023-04-14T12:49:36.560Z,5.93
2023-04-14T12:52:08.045Z,5.30
2023-04-14T12:54:52.383Z,5.40
2023-04-14T12:57:35.350Z,5.60
2023-04-14T13:00:10.548Z,5.83
2023-04-14T13:02:47.044Z,5.47
2023-04-14T13:05:21.984Z,4.50
2023-04-14T13:07:54.200Z,5.20
2023-04-14T13:10:22.488Z,4.93
2023-04-14T13:12:50.927Z,5.07
2023-04-14T13:16:12.931Z,4.40
2023-04-14T13:18:24.203Z,4.93
2023-04-14T13:21:04.516Z,5.73
2023-04-14T13:23:47.768Z,5.67
2023-04-14T13:26:22.413Z,4.70
2023-04-14T13:29:01.252Z,4.93
2023-04-14T13:31:42.885Z,4.90
2023-04-14T13:34:17.890Z,5.40
2023-04-14T13:37:00.282Z,4.90
2023-04-14T13:39:36.004Z,5.77
2023-04-14T13:42:15.191Z,5.93
2023-04-14T13:44:50.851Z,5.57
2023-04-14T13:47:29.300Z,6.23
2023-04-14T13:50:08.868Z,6.60
2023-04-14T13:52:42.414Z,5.67
2023-04-14T13:55:15.780Z,5.10
2023-04-14T13:57:59.735Z,4.80
2023-04-14T14:00:33.570Z,4.77
2023-04-14T14:03:13.706Z,5.27
2023-04-14T14:05:50.691Z,5.30
2023-04-14T14:08:24.690Z,5.30
2023-04-14T14:11:10.342Z,5.63
2023-04-14T14:13:50.220Z,4.60
2023-04-14T14:16:35.964Z,6.47
2023-04-14T14:19:20.853Z,6.60
2023-04-14T14:22:03.308Z,6.13
2023-04-14T14:24:37.888Z,6.97
2023-04-14T14:27:11.192Z,6.10
2023-04-14T14:29:45.060Z,6.73
2023-04-14T14:32:21.563Z,7.67
2023-04-14T14:34:57.638Z,8.57
2023-04-14T14:37:31.550Z,8.17
2023-04-14T14:40:13.195Z,8.90
2023-04-14T14:42:46.580Z,9.33
2023-04-14T14:45:18.998Z,10.37
2023-04-14T14:47:59.091Z,10.20
2023-04-14T14:50:27.428Z,10.27
2023-04-14T14:52:57.426Z,11.93
2023-04-14T14:55:25.760Z,11.43
2023-04-14T14:57:53.923Z,11.57
2023-04-14T15:00:22.545Z,11.60
2023-04-14T15:02:51.039Z,11.27
2023-04-14T15:05:19.728Z,10.30
2023-04-14T15:07:47.830Z,10.90
2023-04-14T15:10:17.751Z,10.80
2023-04-14T15:12:45.980Z,10.23
2023-04-14T15:15:14.236Z,11.63
2023-04-14T15:17:42.374Z,12.80
2023-04-14T15:20:11.900Z,13.37
2023-04-14T15:22:40.086Z,11.83
2023-04-14T15:25:10.174Z,11.10
2023-04-14T15:27:39.793Z,14.20
2023-04-14T15:30:09.182Z,12.50
2023-04-14T15:32:37.469Z,12.27
2023-04-14T15:35:06.152Z,12.57
2023-04-14T15:37:34.706Z,12.30
2023-04-14T15:40:02.946Z,11.40
2023-04-14T15:42:31.123Z,12.23
2023-04-14T15:45:00.697Z,11.17
2023-04-14T15:47:28.761Z,11.67
2023-04-14T15:50:12.997Z,11.53
2023-04-14T15:52:45.498Z,10.30
2023-04-14T15:55:14.187Z,11.20
2023-04-14T15:57:42.417Z,11.43
2023-04-14T16:00:13.399Z,12.47
2023-04-14T16:02:42.201Z,10.40
2023-04-14T16:05:10.973Z,10.27
2023-04-14T16:07:40.024Z,10.33
2023-04-14T16:10:09.068Z,11.87
2023-04-14T16:12:37.777Z,11.50
2023-04-14T16:15:08.968Z,11.43
2023-04-14T16:17:38.818Z,10.70
2023-04-14T16:20:07.741Z,11.83
2023-04-14T16:22:35.954Z,11.30
2023-04-14T16:25:04.777Z,12.77
2023-04-14T16:27:32.892Z,10.10
2023-04-14T16:30:01.160Z,10.77
2023-04-14T16:32:29.901Z,10.07
2023-04-14T16:34:59.748Z,9.70
2023-04-14T16:37:28.567Z,11.93
2023-04-14T16:39:58.046Z,11.43
2023-04-14T16:42:26.954Z,11.37
2023-04-14T16:44:56.158Z,10.00
2023-04-14T16:47:24.712Z,11.00
2023-04-14T16:49:53.044Z,9.10
2023-04-14T16:52:22.504Z,9.60
2023-04-14T16:54:50.609Z,9.73
2023-04-14T16:57:19.014Z,8.30
2023-04-14T16:59:48.201Z,8.03
2023-04-14T17:02:16.572Z,8.67
2023-04-14T17:04:45.264Z,8.03
2023-04-14T17:07:13.561Z,8.30
2023-04-14T17:09:43.227Z,8.53
2023-04-14T17:12:11.483Z,8.30
2023-04-14T17:14:39.737Z,8.63
2023-04-14T17:17:08.300Z,9.33
2023-04-14T17:19:36.464Z,8.67
2023-04-14T17:22:04.508Z,7.17
2023-04-14T17:24:32.805Z,10.43
2023-04-14T17:27:02.509Z,13.53
2023-04-14T17:29:30.779Z,9.00
2023-04-14T17:31:59.327Z,9.20
2023-04-14T17:34:29.352Z,8.97
2023-04-14T17:36:58.862Z,9.37
2023-04-14T17:39:28.530Z,10.53
2023-04-14T17:41:58.095Z,8.80
2023-04-14T17:44:33.419Z,9.87
2023-04-14T17:47:03.271Z,9.40
2023-04-14T17:49:32.542Z,9.27
2023-04-14T17:52:01.423Z,10.60
2023-04-14T17:54:30.620Z,9.30
2023-04-14T17:56:58.661Z,9.70
2023-04-14T17:59:28.429Z,9.23
2023-04-14T18:01:56.665Z,10.13
2023-04-14T18:04:25.621Z,11.10
2023-04-14T18:06:56.749Z,10.20
2023-04-14T18:09:24.987Z,11.60
2023-04-14T18:11:53.302Z,11.33
2023-04-14T18:14:21.694Z,14.43
2023-04-14T18:16:51.478Z,11.33
2023-04-14T18:19:19.663Z,10.90
2023-04-14T18:21:48.400Z,13.77
2023-04-14T18:26:47.564Z,13.93
2023-04-14T18:29:15.864Z,12.47
2023-04-14T18:31:43.868Z,11.00
2023-04-14T18:34:14.036Z,13.50
2023-04-14T18:36:42.632Z,12.57
2023-04-14T18:39:10.724Z,12.30
2023-04-14T18:41:39.446Z,11.80
2023-04-14T18:44:07.748Z,12.80
2023-04-14T18:46:37.806Z,14.40
2023-04-14T18:49:06.110Z,13.13
2023-04-14T18:51:35.704Z,11.93
2023-04-14T18:54:04.019Z,11.87
2023-04-14T18:56:32.637Z,11.97
2023-04-14T18:59:01.000Z,14.07
2023-04-14T19:01:29.783Z,12.70
2023-04-14T19:03:58.220Z,14.97
2023-04-14T19:06:26.717Z,12.07
2023-04-14T19:08:56.843Z,14.90
2023-04-14T19:11:25.480Z,11.83
2023-04-14T19:13:54.272Z,11.90
2023-04-14T19:16:22.754Z,14.27
2023-04-14T19:18:50.864Z,11.77
2023-04-14T19:21:19.117Z,15.67
2023-04-14T19:23:48.686Z,16.17
2023-04-14T19:26:19.509Z,13.37
2023-04-14T19:28:47.782Z,15.33
2023-04-14T19:31:17.403Z,13.77
2023-04-14T19:33:45.768Z,12.27
2023-04-14T19:36:15.111Z,11.77
2023-04-14T19:38:43.423Z,14.40
2023-04-14T19:41:12.147Z,14.30
2023-04-14T19:43:41.789Z,12.00
2023-04-14T19:46:12.794Z,11.60
2023-04-14T19:48:41.011Z,10.60
2023-04-14T19:51:09.384Z,11.73
2023-04-14T19:53:37.683Z,11.10
2023-04-14T19:56:07.360Z,10.93
2023-04-14T19:58:36.560Z,11.70
2023-04-14T20:01:06.225Z,11.27
2023-04-14T20:03:34.800Z,11.00
2023-04-14T20:06:03.336Z,12.97
2023-04-14T20:08:32.346Z,10.53
2023-04-14T20:11:00.758Z,10.83
2023-04-14T20:13:31.398Z,12.03
2023-04-14T20:16:00.273Z,10.77
2023-04-14T20:18:30.075Z,10.90
2023-04-14T20:20:59.081Z,10.73
2023-04-14T20:23:27.994Z,10.80
2023-04-14T20:26:02.522Z,10.40
2023-04-14T20:28:31.531Z,10.03
2023-04-14T20:30:59.718Z,10.13
2023-04-14T20:33:29.709Z,11.10
2023-04-14T20:36:00.069Z,9.73
2023-04-14T20:38:28.346Z,11.83
2023-04-14T20:40:56.671Z,11.80
2023-04-14T20:43:32.632Z,11.63
2023-04-14T20:46:01.507Z,9.23
2023-04-14T20:48:32.303Z,12.33
2023-04-14T20:51:01.846Z,8.77
2023-04-14T20:53:30.206Z,9.43
2023-04-14T20:55:58.321Z,11.70
2023-04-14T20:58:26.574Z,12.23
2023-04-14T21:00:56.758Z,8.87
2023-04-14T21:03:25.455Z,9.50
2023-04-14T21:05:55.471Z,8.33
2023-04-14T21:08:24.798Z,8.80
2023-04-14T21:11:15.869Z,9.03
2023-04-14T21:15:39.724Z,10.30
2023-04-14T21:16:30.047Z,7.97
2023-04-14T21:18:58.452Z,7.67
2023-04-14T21:21:28.048Z,7.50
2023-04-14T21:23:56.212Z,7.93
2023-04-14T21:26:24.636Z,7.27
2023-04-14T21:28:53.053Z,7.73
2023-04-14T21:31:21.259Z,7.83
2023-04-14T21:33:49.380Z,7.73
2023-04-14T21:36:17.457Z,7.73
2023-04-14T21:38:47.473Z,7.40
2023-04-14T21:41:15.996Z,8.43
2023-04-14T21:43:44.114Z,7.03
2023-04-14T21:46:12.313Z,7.23
2023-04-14T21:48:40.562Z,7.37
2023-04-14T21:51:09.091Z,8.67
2023-04-14T21:53:37.543Z,7.70
2023-04-14T21:56:10.019Z,7.10
2023-04-14T21:58:39.560Z,6.70
2023-04-14T22:01:09.644Z,7.23
2023-04-14T22:03:40.615Z,6.80
2023-04-14T22:06:10.096Z,7.40
2023-04-14T22:08:40.401Z,6.77
2023-04-14T22:11:10.376Z,7.03
2023-04-14T22:13:38.602Z,7.10
2023-04-14T22:16:07.568Z,7.33
2023-04-14T22:18:37.272Z,6.80
2023-04-14T22:21:05.773Z,7.27
2023-04-14T22:23:34.205Z,7.07
2023-04-14T22:26:02.703Z,7.20
2023-04-14T22:28:32.165Z,5.10
2023-04-14T22:31:00.354Z,6.80
2023-04-14T22:33:28.767Z,6.63
2023-04-14T22:35:56.952Z,6.87
2023-04-14T22:38:25.238Z,6.83
2023-04-14T22:40:53.421Z,6.00
2023-04-14T22:43:21.634Z,6.60
2023-04-14T22:45:51.247Z,6.33
2023-04-14T22:48:19.695Z,6.33
2023-04-14T22:50:47.749Z,7.20
2023-04-14T22:53:16.481Z,6.53
2023-04-14T22:55:45.389Z,6.47
2023-04-14T22:58:17.080Z,5.87
2023-04-14T23:00:45.677Z,6.00
2023-04-14T23:03:15.650Z,6.03
2023-04-14T23:05:44.834Z,6.37
2023-04-14T23:08:13.121Z,5.97
2023-04-14T23:10:41.706Z,6.07
2023-04-14T23:13:09.929Z,7.43
2023-04-14T23:15:38.195Z,6.23
2023-04-14T23:18:06.719Z,7.23
2023-04-14T23:20:37.037Z,6.30
2023-04-14T23:23:05.896Z,6.33
2023-04-14T23:25:34.137Z,6.43
2023-04-14T23:28:02.430Z,6.27
2023-04-14T23:30:30.780Z,6.10
2023-04-14T23:32:58.965Z,5.57
2023-04-14T23:35:27.075Z,7.03
2023-04-14T23:38:02.385Z,5.83
2023-04-14T23:40:30.791Z,5.67
2023-04-14T23:42:59.300Z,6.03
2023-04-14T23:45:28.049Z,6.17
2023-04-14T23:47:56.721Z,6.20
2023-04-14T23:51:00.510Z,10.17
2023-04-14T23:53:15.747Z,7.30
2023-04-14T23:55:44.794Z,7.07
2023-04-14T23:58:13.131Z,5.90
